sensor_id;sensor_type;location;lat;lon;timestamp;P1;durP1;ratioP1;P2;durP2;ratioP2
18875;SDS011;9570;50.854;13.778;2023-07-31T00:01:02;8.60;;;1.60;;
18875;SDS011;9570;50.854;13.778;2023-07-31T00:03:28;3.63;;;1.60;;
18875;SDS011;9570;50.854;13.778;2023-07-31T00:05:53;5.67;;;1.63;;
18875;SDS011;9570;50.854;13.778;2023-07-31T00:08:19;6.93;;;1.80;;
18875;SDS011;9570;50.854;13.778;2023-07-31T00:10:44;5.23;;;1.40;;
18875;SDS011;9570;50.854;13.778;2023-07-31T00:13:10;4.50;;;1.67;;
18875;SDS011;9570;50.854;13.778;2023-07-31T00:15:35;6.50;;;1.77;;
18875;SDS011;9570;50.854;13.778;2023-07-31T00:18:01;2.40;;;1.53;;
18875;SDS011;9570;50.854;13.778;2023-07-31T00:20:26;5.23;;;1.50;;
18875;SDS011;9570;50.854;13.778;2023-07-31T00:22:52;4.53;;;1.80;;
18875;SDS011;9570;50.854;13.778;2023-07-31T00:25:17;4.27;;;1.63;;
18875;SDS011;9570;50.854;13.778;2023-07-31T00:27:42;6.20;;;1.77;;
18875;SDS011;9570;50.854;13.778;2023-07-31T00:30:09;6.37;;;1.73;;
18875;SDS011;9570;50.854;13.778;2023-07-31T00:32:35;3.70;;;1.67;;
18875;SDS011;9570;50.854;13.778;2023-07-31T00:35:01;3.10;;;1.93;;
18875;SDS011;9570;50.854;13.778;2023-07-31T00:37:26;4.10;;;1.67;;
18875;SDS011;9570;50.854;13.778;2023-07-31T00:39:52;3.80;;;1.53;;
18875;SDS011;9570;50.854;13.778;2023-07-31T00:42:17;3.53;;;1.60;;
18875;SDS011;9570;50.854;13.778;2023-07-31T00:44:43;4.70;;;1.67;;
18875;SDS011;9570;50.854;13.778;2023-07-31T00:47:08;3.33;;;1.60;;
18875;SDS011;9570;50.854;13.778;2023-07-31T00:49:34;6.50;;;1.77;;
18875;SDS011;9570;50.854;13.778;2023-07-31T00:51:59;3.33;;;1.67;;
18875;SDS011;9570;50.854;13.778;2023-07-31T00:54:27;5.00;;;1.70;;
18875;SDS011;9570;50.854;13.778;2023-07-31T00:56:53;3.73;;;1.70;;
18875;SDS011;9570;50.854;13.778;2023-07-31T00:59:19;6.17;;;2.10;;
18875;SDS011;9570;50.854;13.778;2023-07-31T01:01:45;6.97;;;1.63;;
18875;SDS011;9570;50.854;13.778;2023-07-31T01:04:11;4.27;;;1.70;;
18875;SDS011;9570;50.854;13.778;2023-07-31T01:06:44;5.30;;;1.90;;
18875;SDS011;9570;50.854;13.778;2023-07-31T01:09:29;5.43;;;1.63;;
18875;SDS011;9570;50.854;13.778;2023-07-31T01:12:02;3.77;;;1.87;;
18875;SDS011;9570;50.854;13.778;2023-07-31T01:14:29;3.57;;;1.60;;
18875;SDS011;9570;50.854;13.778;2023-07-31T01:16:55;2.53;;;1.67;;
18875;SDS011;9570;50.854;13.778;2023-07-31T01:19:24;3.53;;;1.70;;
18875;SDS011;9570;50.854;13.778;2023-07-31T01:22:20;4.97;;;1.67;;
18875;SDS011;9570;50.854;13.778;2023-07-31T01:24:52;2.27;;;1.40;;
18875;SDS011;9570;50.854;13.778;2023-07-31T01:27:30;5.20;;;1.60;;
18875;SDS011;9570;50.854;13.778;2023-07-31T01:30:08;2.57;;;1.40;;
18875;SDS011;9570;50.854;13.778;2023-07-31T01:32:40;2.53;;;1.80;;
18875;SDS011;9570;50.854;13.778;2023-07-31T01:35:07;3.20;;;1.73;;
18875;SDS011;9570;50.854;13.778;2023-07-31T01:37:33;2.30;;;1.60;;
18875;SDS011;9570;50.854;13.778;2023-07-31T01:39:59;6.30;;;1.90;;
18875;SDS011;9570;50.854;13.778;2023-07-31T01:42:24;4.37;;;1.57;;
18875;SDS011;9570;50.854;13.778;2023-07-31T01:44:50;3.73;;;1.67;;
18875;SDS011;9570;50.854;13.778;2023-07-31T01:47:15;4.70;;;1.67;;
18875;SDS011;9570;50.854;13.778;2023-07-31T01:49:41;6.37;;;1.60;;
18875;SDS011;9570;50.854;13.778;2023-07-31T01:52:06;5.10;;;1.83;;
18875;SDS011;9570;50.854;13.778;2023-07-31T01:54:32;2.17;;;1.50;;
18875;SDS011;9570;50.854;13.778;2023-07-31T01:56:58;2.93;;;1.60;;
18875;SDS011;9570;50.854;13.778;2023-07-31T01:59:24;3.93;;;1.73;;
18875;SDS011;9570;50.854;13.778;2023-07-31T02:01:49;3.83;;;1.40;;
18875;SDS011;9570;50.854;13.778;2023-07-31T02:04:15;3.13;;;1.67;;
18875;SDS011;9570;50.854;13.778;2023-07-31T02:06:40;3.63;;;1.60;;
18875;SDS011;9570;50.854;13.778;2023-07-31T02:09:06;2.13;;;1.60;;
18875;SDS011;9570;50.854;13.778;2023-07-31T02:11:31;3.80;;;1.73;;
18875;SDS011;9570;50.854;13.778;2023-07-31T02:13:57;4.40;;;1.63;;
18875;SDS011;9570;50.854;13.778;2023-07-31T02:16:22;6.67;;;1.90;;
18875;SDS011;9570;50.854;13.778;2023-07-31T02:18:47;4.17;;;1.50;;
18875;SDS011;9570;50.854;13.778;2023-07-31T02:21:13;4.93;;;1.90;;
18875;SDS011;9570;50.854;13.778;2023-07-31T02:23:38;7.27;;;1.70;;
18875;SDS011;9570;50.854;13.778;2023-07-31T02:26:04;4.63;;;1.53;;
18875;SDS011;9570;50.854;13.778;2023-07-31T02:28:29;4.73;;;1.70;;
18875;SDS011;9570;50.854;13.778;2023-07-31T02:30:55;5.57;;;1.70;;
18875;SDS011;9570;50.854;13.778;2023-07-31T02:33:20;5.30;;;1.60;;
18875;SDS011;9570;50.854;13.778;2023-07-31T02:35:46;2.83;;;1.43;;
18875;SDS011;9570;50.854;13.778;2023-07-31T02:38:11;3.90;;;1.60;;
18875;SDS011;9570;50.854;13.778;2023-07-31T02:40:37;4.13;;;1.80;;
18875;SDS011;9570;50.854;13.778;2023-07-31T02:43:03;4.10;;;1.60;;
18875;SDS011;9570;50.854;13.778;2023-07-31T02:45:29;2.13;;;1.40;;
18875;SDS011;9570;50.854;13.778;2023-07-31T02:47:54;1.87;;;1.33;;
18875;SDS011;9570;50.854;13.778;2023-07-31T02:50:20;3.20;;;2.00;;
18875;SDS011;9570;50.854;13.778;2023-07-31T02:52:45;5.43;;;1.80;;
18875;SDS011;9570;50.854;13.778;2023-07-31T02:55:11;5.43;;;1.80;;
18875;SDS011;9570;50.854;13.778;2023-07-31T02:57:36;3.97;;;1.63;;
18875;SDS011;9570;50.854;13.778;2023-07-31T03:00:02;4.37;;;1.70;;
18875;SDS011;9570;50.854;13.778;2023-07-31T03:02:30;3.07;;;1.50;;
18875;SDS011;9570;50.854;13.778;2023-07-31T03:04:56;3.87;;;1.90;;
18875;SDS011;9570;50.854;13.778;2023-07-31T03:07:21;8.23;;;1.70;;
18875;SDS011;9570;50.854;13.778;2023-07-31T03:09:47;6.47;;;1.83;;
18875;SDS011;9570;50.854;13.778;2023-07-31T03:12:13;4.70;;;1.80;;
18875;SDS011;9570;50.854;13.778;2023-07-31T03:14:38;4.40;;;1.77;;
18875;SDS011;9570;50.854;13.778;2023-07-31T03:17:04;5.03;;;1.60;;
18875;SDS011;9570;50.854;13.778;2023-07-31T03:19:32;3.40;;;1.50;;
18875;SDS011;9570;50.854;13.778;2023-07-31T03:21:58;4.53;;;1.73;;
18875;SDS011;9570;50.854;13.778;2023-07-31T03:24:24;5.27;;;1.50;;
18875;SDS011;9570;50.854;13.778;2023-07-31T03:26:50;3.07;;;1.57;;
18875;SDS011;9570;50.854;13.778;2023-07-31T03:29:15;3.10;;;1.60;;
18875;SDS011;9570;50.854;13.778;2023-07-31T03:31:41;4.17;;;1.50;;
18875;SDS011;9570;50.854;13.778;2023-07-31T03:34:06;3.20;;;1.70;;
18875;SDS011;9570;50.854;13.778;2023-07-31T03:36:32;5.43;;;1.67;;
18875;SDS011;9570;50.854;13.778;2023-07-31T03:38:57;4.77;;;1.80;;
18875;SDS011;9570;50.854;13.778;2023-07-31T03:41:23;4.07;;;1.93;;
18875;SDS011;9570;50.854;13.778;2023-07-31T03:43:49;2.73;;;1.60;;
18875;SDS011;9570;50.854;13.778;2023-07-31T03:46:20;4.00;;;1.80;;
18875;SDS011;9570;50.854;13.778;2023-07-31T03:48:47;4.10;;;1.57;;
18875;SDS011;9570;50.854;13.778;2023-07-31T03:51:12;4.43;;;1.60;;
18875;SDS011;9570;50.854;13.778;2023-07-31T03:53:38;5.53;;;1.40;;
18875;SDS011;9570;50.854;13.778;2023-07-31T03:56:04;3.20;;;1.50;;
18875;SDS011;9570;50.854;13.778;2023-07-31T03:58:29;5.00;;;1.90;;
18875;SDS011;9570;50.854;13.778;2023-07-31T04:00:55;2.10;;;1.50;;
18875;SDS011;9570;50.854;13.778;2023-07-31T04:03:20;2.90;;;1.70;;
18875;SDS011;9570;50.854;13.778;2023-07-31T04:05:46;3.50;;;1.67;;
18875;SDS011;9570;50.854;13.778;2023-07-31T04:08:11;3.27;;;1.63;;
18875;SDS011;9570;50.854;13.778;2023-07-31T04:10:36;4.37;;;1.70;;
18875;SDS011;9570;50.854;13.778;2023-07-31T04:13:02;3.47;;;1.63;;
18875;SDS011;9570;50.854;13.778;2023-07-31T04:15:27;3.83;;;1.70;;
18875;SDS011;9570;50.854;13.778;2023-07-31T04:17:53;3.90;;;1.73;;
18875;SDS011;9570;50.854;13.778;2023-07-31T04:20:18;2.90;;;1.77;;
18875;SDS011;9570;50.854;13.778;2023-07-31T04:22:44;3.10;;;1.93;;
18875;SDS011;9570;50.854;13.778;2023-07-31T04:25:09;3.10;;;1.63;;
18875;SDS011;9570;50.854;13.778;2023-07-31T04:27:35;4.00;;;1.83;;
18875;SDS011;9570;50.854;13.778;2023-07-31T04:30:00;4.60;;;2.07;;
18875;SDS011;9570;50.854;13.778;2023-07-31T04:32:26;4.73;;;1.97;;
18875;SDS011;9570;50.854;13.778;2023-07-31T04:34:51;5.33;;;2.20;;
18875;SDS011;9570;50.854;13.778;2023-07-31T04:37:17;7.73;;;1.90;;
18875;SDS011;9570;50.854;13.778;2023-07-31T04:39:43;6.43;;;2.17;;
18875;SDS011;9570;50.854;13.778;2023-07-31T04:42:08;5.70;;;1.73;;
18875;SDS011;9570;50.854;13.778;2023-07-31T04:44:33;3.60;;;1.80;;
18875;SDS011;9570;50.854;13.778;2023-07-31T04:47:00;3.43;;;2.20;;
18875;SDS011;9570;50.854;13.778;2023-07-31T04:49:25;5.30;;;2.20;;
18875;SDS011;9570;50.854;13.778;2023-07-31T04:51:51;4.20;;;2.07;;
18875;SDS011;9570;50.854;13.778;2023-07-31T04:54:16;4.37;;;2.07;;
18875;SDS011;9570;50.854;13.778;2023-07-31T04:56:42;3.30;;;2.10;;
18875;SDS011;9570;50.854;13.778;2023-07-31T04:59:07;4.53;;;2.03;;
18875;SDS011;9570;50.854;13.778;2023-07-31T05:01:33;6.50;;;2.40;;
18875;SDS011;9570;50.854;13.778;2023-07-31T05:03:58;4.63;;;1.90;;
18875;SDS011;9570;50.854;13.778;2023-07-31T05:06:24;6.70;;;2.30;;
18875;SDS011;9570;50.854;13.778;2023-07-31T05:08:49;3.97;;;2.00;;
18875;SDS011;9570;50.854;13.778;2023-07-31T05:11:15;4.60;;;2.10;;
18875;SDS011;9570;50.854;13.778;2023-07-31T05:13:40;3.23;;;2.03;;
18875;SDS011;9570;50.854;13.778;2023-07-31T05:16:06;4.00;;;2.00;;
18875;SDS011;9570;50.854;13.778;2023-07-31T05:18:31;4.83;;;2.03;;
18875;SDS011;9570;50.854;13.778;2023-07-31T05:20:56;3.17;;;1.80;;
18875;SDS011;9570;50.854;13.778;2023-07-31T05:23:22;6.07;;;1.70;;
18875;SDS011;9570;50.854;13.778;2023-07-31T05:25:47;3.57;;;1.80;;
18875;SDS011;9570;50.854;13.778;2023-07-31T05:28:13;4.03;;;1.87;;
18875;SDS011;9570;50.854;13.778;2023-07-31T05:30:38;3.87;;;1.90;;
18875;SDS011;9570;50.854;13.778;2023-07-31T05:33:04;2.43;;;1.90;;
18875;SDS011;9570;50.854;13.778;2023-07-31T05:35:29;3.80;;;1.63;;
18875;SDS011;9570;50.854;13.778;2023-07-31T05:37:55;3.97;;;2.10;;
18875;SDS011;9570;50.854;13.778;2023-07-31T05:40:20;2.93;;;1.67;;
18875;SDS011;9570;50.854;13.778;2023-07-31T05:42:46;2.43;;;1.77;;
18875;SDS011;9570;50.854;13.778;2023-07-31T05:45:11;4.47;;;2.20;;
18875;SDS011;9570;50.854;13.778;2023-07-31T05:47:38;2.33;;;1.60;;
18875;SDS011;9570;50.854;13.778;2023-07-31T05:50:04;3.13;;;2.00;;
18875;SDS011;9570;50.854;13.778;2023-07-31T05:52:30;2.40;;;1.90;;
18875;SDS011;9570;50.854;13.778;2023-07-31T05:54:55;5.17;;;2.20;;
18875;SDS011;9570;50.854;13.778;2023-07-31T05:57:21;5.23;;;2.10;;
18875;SDS011;9570;50.854;13.778;2023-07-31T05:59:46;2.80;;;2.03;;
18875;SDS011;9570;50.854;13.778;2023-07-31T06:02:12;3.00;;;1.87;;
18875;SDS011;9570;50.854;13.778;2023-07-31T06:04:38;3.87;;;2.00;;
18875;SDS011;9570;50.854;13.778;2023-07-31T06:07:03;2.80;;;1.90;;
18875;SDS011;9570;50.854;13.778;2023-07-31T06:09:29;3.17;;;2.00;;
18875;SDS011;9570;50.854;13.778;2023-07-31T06:11:54;3.00;;;1.70;;
18875;SDS011;9570;50.854;13.778;2023-07-31T06:14:20;4.27;;;1.90;;
18875;SDS011;9570;50.854;13.778;2023-07-31T06:16:45;4.40;;;2.27;;
18875;SDS011;9570;50.854;13.778;2023-07-31T06:19:11;4.07;;;2.03;;
18875;SDS011;9570;50.854;13.778;2023-07-31T06:21:36;2.63;;;1.90;;
18875;SDS011;9570;50.854;13.778;2023-07-31T06:24:02;4.07;;;2.03;;
18875;SDS011;9570;50.854;13.778;2023-07-31T06:26:29;3.57;;;1.70;;
18875;SDS011;9570;50.854;13.778;2023-07-31T06:28:54;5.50;;;2.47;;
18875;SDS011;9570;50.854;13.778;2023-07-31T06:31:20;3.73;;;2.10;;
18875;SDS011;9570;50.854;13.778;2023-07-31T06:33:48;5.67;;;2.07;;
18875;SDS011;9570;50.854;13.778;2023-07-31T06:36:14;5.60;;;2.60;;
18875;SDS011;9570;50.854;13.778;2023-07-31T06:38:39;4.47;;;2.00;;
18875;SDS011;9570;50.854;13.778;2023-07-31T06:41:05;5.13;;;2.20;;
18875;SDS011;9570;50.854;13.778;2023-07-31T06:43:30;4.80;;;2.33;;
18875;SDS011;9570;50.854;13.778;2023-07-31T06:45:56;3.93;;;2.20;;
18875;SDS011;9570;50.854;13.778;2023-07-31T06:48:21;3.17;;;2.03;;
18875;SDS011;9570;50.854;13.778;2023-07-31T06:50:47;3.17;;;2.03;;
18875;SDS011;9570;50.854;13.778;2023-07-31T06:53:12;2.60;;;2.10;;
18875;SDS011;9570;50.854;13.778;2023-07-31T06:55:38;4.80;;;2.40;;
18875;SDS011;9570;50.854;13.778;2023-07-31T06:58:03;3.60;;;2.30;;
18875;SDS011;9570;50.854;13.778;2023-07-31T07:00:29;3.40;;;2.30;;
18875;SDS011;9570;50.854;13.778;2023-07-31T07:02:54;4.00;;;2.20;;
18875;SDS011;9570;50.854;13.778;2023-07-31T07:05:20;4.10;;;2.20;;
18875;SDS011;9570;50.854;13.778;2023-07-31T07:07:45;4.57;;;2.27;;
18875;SDS011;9570;50.854;13.778;2023-07-31T07:10:11;2.60;;;2.10;;
18875;SDS011;9570;50.854;13.778;2023-07-31T07:12:36;4.10;;;2.10;;
18875;SDS011;9570;50.854;13.778;2023-07-31T07:15:02;4.40;;;2.20;;
18875;SDS011;9570;50.854;13.778;2023-07-31T07:17:28;3.63;;;2.30;;
18875;SDS011;9570;50.854;13.778;2023-07-31T07:19:58;3.63;;;2.20;;
18875;SDS011;9570;50.854;13.778;2023-07-31T07:22:24;4.83;;;1.93;;
18875;SDS011;9570;50.854;13.778;2023-07-31T07:24:50;4.20;;;2.30;;
18875;SDS011;9570;50.854;13.778;2023-07-31T07:27:16;3.37;;;2.30;;
18875;SDS011;9570;50.854;13.778;2023-07-31T07:29:41;3.37;;;2.40;;
18875;SDS011;9570;50.854;13.778;2023-07-31T07:32:07;3.90;;;2.10;;
18875;SDS011;9570;50.854;13.778;2023-07-31T07:34:33;4.43;;;2.40;;
18875;SDS011;9570;50.854;13.778;2023-07-31T07:36:58;5.13;;;2.30;;
18875;SDS011;9570;50.854;13.778;2023-07-31T07:39:24;4.37;;;2.10;;
18875;SDS011;9570;50.854;13.778;2023-07-31T07:41:49;3.87;;;2.33;;
18875;SDS011;9570;50.854;13.778;2023-07-31T07:44:15;4.37;;;1.93;;
18875;SDS011;9570;50.854;13.778;2023-07-31T07:46:41;3.87;;;2.47;;
18875;SDS011;9570;50.854;13.778;2023-07-31T07:49:06;2.80;;;2.17;;
18875;SDS011;9570;50.854;13.778;2023-07-31T07:51:32;6.10;;;2.30;;
18875;SDS011;9570;50.854;13.778;2023-07-31T07:53:58;2.97;;;2.20;;
18875;SDS011;9570;50.854;13.778;2023-07-31T07:56:24;2.77;;;2.33;;
18875;SDS011;9570;50.854;13.778;2023-07-31T07:58:51;4.97;;;2.53;;
18875;SDS011;9570;50.854;13.778;2023-07-31T08:01:16;6.37;;;2.47;;
18875;SDS011;9570;50.854;13.778;2023-07-31T08:03:42;4.93;;;2.73;;
18875;SDS011;9570;50.854;13.778;2023-07-31T08:06:07;5.20;;;2.67;;
18875;SDS011;9570;50.854;13.778;2023-07-31T08:08:36;5.37;;;2.30;;
18875;SDS011;9570;50.854;13.778;2023-07-31T08:11:02;4.80;;;2.20;;
18875;SDS011;9570;50.854;13.778;2023-07-31T08:13:28;5.07;;;2.40;;
18875;SDS011;9570;50.854;13.778;2023-07-31T08:15:53;2.77;;;2.27;;
18875;SDS011;9570;50.854;13.778;2023-07-31T08:18:19;3.43;;;2.23;;
18875;SDS011;9570;50.854;13.778;2023-07-31T08:20:45;6.63;;;2.13;;
18875;SDS011;9570;50.854;13.778;2023-07-31T08:23:11;3.77;;;2.20;;
18875;SDS011;9570;50.854;13.778;2023-07-31T08:25:37;4.20;;;2.27;;
18875;SDS011;9570;50.854;13.778;2023-07-31T08:28:03;3.33;;;2.20;;
18875;SDS011;9570;50.854;13.778;2023-07-31T08:30:30;4.43;;;2.47;;
18875;SDS011;9570;50.854;13.778;2023-07-31T08:32:55;2.50;;;2.00;;
18875;SDS011;9570;50.854;13.778;2023-07-31T08:35:21;4.17;;;2.30;;
18875;SDS011;9570;50.854;13.778;2023-07-31T08:37:46;3.90;;;2.40;;
18875;SDS011;9570;50.854;13.778;2023-07-31T08:40:12;6.47;;;2.30;;
18875;SDS011;9570;50.854;13.778;2023-07-31T08:42:45;2.40;;;2.20;;
18875;SDS011;9570;50.854;13.778;2023-07-31T08:45:13;4.67;;;2.10;;
18875;SDS011;9570;50.854;13.778;2023-07-31T08:47:47;4.87;;;2.50;;
18875;SDS011;9570;50.854;13.778;2023-07-31T08:50:14;5.03;;;2.60;;
18875;SDS011;9570;50.854;13.778;2023-07-31T08:52:41;3.20;;;2.33;;
18875;SDS011;9570;50.854;13.778;2023-07-31T08:55:07;4.40;;;2.30;;
18875;SDS011;9570;50.854;13.778;2023-07-31T08:57:34;5.57;;;2.47;;
18875;SDS011;9570;50.854;13.778;2023-07-31T09:00:02;4.90;;;2.50;;
18875;SDS011;9570;50.854;13.778;2023-07-31T09:02:33;6.20;;;2.60;;
18875;SDS011;9570;50.854;13.778;2023-07-31T09:05:09;4.57;;;2.33;;
18875;SDS011;9570;50.854;13.778;2023-07-31T09:07:36;4.37;;;2.63;;
18875;SDS011;9570;50.854;13.778;2023-07-31T09:10:03;5.00;;;2.30;;
18875;SDS011;9570;50.854;13.778;2023-07-31T09:12:29;5.30;;;2.30;;
18875;SDS011;9570;50.854;13.778;2023-07-31T09:14:55;4.40;;;2.33;;
18875;SDS011;9570;50.854;13.778;2023-07-31T09:17:28;3.30;;;2.50;;
18875;SDS011;9570;50.854;13.778;2023-07-31T09:19:55;5.83;;;2.60;;
18875;SDS011;9570;50.854;13.778;2023-07-31T09:22:39;4.93;;;2.30;;
18875;SDS011;9570;50.854;13.778;2023-07-31T09:25:24;4.37;;;2.33;;
18875;SDS011;9570;50.854;13.778;2023-07-31T09:27:53;4.60;;;2.40;;
18875;SDS011;9570;50.854;13.778;2023-07-31T09:30:20;2.97;;;2.20;;
18875;SDS011;9570;50.854;13.778;2023-07-31T09:32:47;3.87;;;2.70;;
18875;SDS011;9570;50.854;13.778;2023-07-31T09:35:14;4.77;;;2.43;;
18875;SDS011;9570;50.854;13.778;2023-07-31T09:37:53;3.80;;;2.13;;
18875;SDS011;9570;50.854;13.778;2023-07-31T09:42:53;3.70;;;2.30;;
18875;SDS011;9570;50.854;13.778;2023-07-31T09:45:23;3.67;;;2.40;;
18875;SDS011;9570;50.854;13.778;2023-07-31T09:47:49;6.03;;;2.27;;
18875;SDS011;9570;50.854;13.778;2023-07-31T09:50:15;4.60;;;1.93;;
18875;SDS011;9570;50.854;13.778;2023-07-31T09:52:43;4.10;;;2.30;;
18875;SDS011;9570;50.854;13.778;2023-07-31T09:55:09;3.77;;;2.40;;
18875;SDS011;9570;50.854;13.778;2023-07-31T09:57:39;4.53;;;2.20;;
18875;SDS011;9570;50.854;13.778;2023-07-31T10:00:09;4.80;;;2.40;;
18875;SDS011;9570;50.854;13.778;2023-07-31T10:02:36;3.90;;;2.33;;
18875;SDS011;9570;50.854;13.778;2023-07-31T10:05:03;4.27;;;2.33;;
18875;SDS011;9570;50.854;13.778;2023-07-31T10:07:30;3.43;;;2.30;;
18875;SDS011;9570;50.854;13.778;2023-07-31T10:10:00;3.20;;;2.33;;
18875;SDS011;9570;50.854;13.778;2023-07-31T10:12:26;4.57;;;2.23;;
18875;SDS011;9570;50.854;13.778;2023-07-31T10:14:56;3.03;;;2.00;;
18875;SDS011;9570;50.854;13.778;2023-07-31T10:17:22;5.57;;;2.63;;
18875;SDS011;9570;50.854;13.778;2023-07-31T10:19:49;3.57;;;2.43;;
18875;SDS011;9570;50.854;13.778;2023-07-31T10:22:15;3.47;;;2.10;;
18875;SDS011;9570;50.854;13.778;2023-07-31T10:24:44;3.30;;;2.10;;
18875;SDS011;9570;50.854;13.778;2023-07-31T10:27:11;2.73;;;2.30;;
18875;SDS011;9570;50.854;13.778;2023-07-31T10:29:37;3.30;;;2.40;;
18875;SDS011;9570;50.854;13.778;2023-07-31T10:32:04;3.83;;;2.30;;
18875;SDS011;9570;50.854;13.778;2023-07-31T10:34:36;2.60;;;2.20;;
18875;SDS011;9570;50.854;13.778;2023-07-31T10:37:23;4.37;;;2.40;;
18875;SDS011;9570;50.854;13.778;2023-07-31T10:40:00;3.60;;;2.33;;
18875;SDS011;9570;50.854;13.778;2023-07-31T10:42:36;4.33;;;2.30;;
18875;SDS011;9570;50.854;13.778;2023-07-31T10:47:30;2.50;;;2.10;;
18875;SDS011;9570;50.854;13.778;2023-07-31T10:50:12;2.43;;;1.80;;
18875;SDS011;9570;50.854;13.778;2023-07-31T10:52:38;2.27;;;2.00;;
18875;SDS011;9570;50.854;13.778;2023-07-31T10:55:14;4.13;;;2.13;;
18875;SDS011;9570;50.854;13.778;2023-07-31T10:57:44;2.97;;;1.93;;
18875;SDS011;9570;50.854;13.778;2023-07-31T11:00:23;2.23;;;1.77;;
18875;SDS011;9570;50.854;13.778;2023-07-31T11:03:13;4.20;;;1.50;;
18875;SDS011;9570;50.854;13.778;2023-07-31T11:05:40;3.30;;;1.70;;
18875;SDS011;9570;50.854;13.778;2023-07-31T11:08:17;2.23;;;1.50;;
18875;SDS011;9570;50.854;13.778;2023-07-31T11:10:45;4.53;;;1.60;;
18875;SDS011;9570;50.854;13.778;2023-07-31T11:13:12;2.30;;;1.67;;
18875;SDS011;9570;50.854;13.778;2023-07-31T11:15:38;2.63;;;1.70;;
18875;SDS011;9570;50.854;13.778;2023-07-31T11:18:04;1.87;;;1.40;;
18875;SDS011;9570;50.854;13.778;2023-07-31T11:20:31;2.13;;;1.43;;
18875;SDS011;9570;50.854;13.778;2023-07-31T11:23:05;4.40;;;1.73;;
18875;SDS011;9570;50.854;13.778;2023-07-31T11:25:32;1.70;;;1.20;;
18875;SDS011;9570;50.854;13.778;2023-07-31T11:28:09;3.83;;;2.07;;
18875;SDS011;9570;50.854;13.778;2023-07-31T11:30:36;2.80;;;1.57;;
18875;SDS011;9570;50.854;13.778;2023-07-31T11:33:02;2.53;;;1.60;;
18875;SDS011;9570;50.854;13.778;2023-07-31T11:35:36;2.10;;;1.80;;
18875;SDS011;9570;50.854;13.778;2023-07-31T11:38:09;2.40;;;1.50;;
18875;SDS011;9570;50.854;13.778;2023-07-31T11:40:43;3.67;;;1.87;;
18875;SDS011;9570;50.854;13.778;2023-07-31T11:43:09;2.00;;;1.80;;
18875;SDS011;9570;50.854;13.778;2023-07-31T11:45:38;4.10;;;1.70;;
18875;SDS011;9570;50.854;13.778;2023-07-31T11:48:05;2.13;;;1.70;;
18875;SDS011;9570;50.854;13.778;2023-07-31T11:50:33;2.50;;;1.60;;
18875;SDS011;9570;50.854;13.778;2023-07-31T11:53:01;2.93;;;1.77;;
18875;SDS011;9570;50.854;13.778;2023-07-31T11:55:32;1.80;;;1.40;;
18875;SDS011;9570;50.854;13.778;2023-07-31T11:57:58;1.60;;;1.43;;
18875;SDS011;9570;50.854;13.778;2023-07-31T12:00:24;2.53;;;1.50;;
18875;SDS011;9570;50.854;13.778;2023-07-31T12:02:51;2.43;;;1.40;;
18875;SDS011;9570;50.854;13.778;2023-07-31T12:05:17;2.33;;;1.60;;
18875;SDS011;9570;50.854;13.778;2023-07-31T12:07:43;2.80;;;1.70;;
18875;SDS011;9570;50.854;13.778;2023-07-31T12:10:31;2.00;;;1.40;;
18875;SDS011;9570;50.854;13.778;2023-07-31T12:13:08;4.90;;;1.57;;
18875;SDS011;9570;50.854;13.778;2023-07-31T12:15:41;2.37;;;1.40;;
18875;SDS011;9570;50.854;13.778;2023-07-31T12:18:13;1.90;;;1.40;;
18875;SDS011;9570;50.854;13.778;2023-07-31T12:20:43;1.70;;;1.30;;
18875;SDS011;9570;50.854;13.778;2023-07-31T12:23:13;3.00;;;1.60;;
18875;SDS011;9570;50.854;13.778;2023-07-31T12:25:40;4.03;;;1.80;;
18875;SDS011;9570;50.854;13.778;2023-07-31T12:28:06;2.50;;;1.43;;
18875;SDS011;9570;50.854;13.778;2023-07-31T12:30:36;1.47;;;1.30;;
18875;SDS011;9570;50.854;13.778;2023-07-31T12:33:13;1.77;;;1.50;;
18875;SDS011;9570;50.854;13.778;2023-07-31T12:35:46;1.77;;;1.57;;
18875;SDS011;9570;50.854;13.778;2023-07-31T12:38:12;2.10;;;1.40;;
18875;SDS011;9570;50.854;13.778;2023-07-31T12:40:38;2.10;;;1.80;;
18875;SDS011;9570;50.854;13.778;2023-07-31T12:43:05;2.73;;;1.70;;
18875;SDS011;9570;50.854;13.778;2023-07-31T12:45:31;2.33;;;1.90;;
18875;SDS011;9570;50.854;13.778;2023-07-31T12:48:00;2.17;;;1.80;;
18875;SDS011;9570;50.854;13.778;2023-07-31T12:50:26;2.47;;;1.90;;
18875;SDS011;9570;50.854;13.778;2023-07-31T12:52:55;3.43;;;2.10;;
18875;SDS011;9570;50.854;13.778;2023-07-31T12:55:21;4.27;;;2.00;;
18875;SDS011;9570;50.854;13.778;2023-07-31T12:57:47;3.90;;;2.10;;
18875;SDS011;9570;50.854;13.778;2023-07-31T13:00:13;3.47;;;2.00;;
18875;SDS011;9570;50.854;13.778;2023-07-31T13:02:39;3.53;;;2.00;;
18875;SDS011;9570;50.854;13.778;2023-07-31T13:05:04;3.90;;;2.00;;
18875;SDS011;9570;50.854;13.778;2023-07-31T13:07:30;3.53;;;1.87;;
18875;SDS011;9570;50.854;13.778;2023-07-31T13:09:56;3.30;;;2.17;;
18875;SDS011;9570;50.854;13.778;2023-07-31T13:12:21;3.60;;;2.17;;
18875;SDS011;9570;50.854;13.778;2023-07-31T13:14:47;3.40;;;1.87;;
18875;SDS011;9570;50.854;13.778;2023-07-31T13:17:12;3.13;;;2.20;;
18875;SDS011;9570;50.854;13.778;2023-07-31T13:19:38;4.63;;;2.13;;
18875;SDS011;9570;50.854;13.778;2023-07-31T13:22:03;3.93;;;2.00;;
18875;SDS011;9570;50.854;13.778;2023-07-31T13:24:29;3.00;;;2.23;;
18875;SDS011;9570;50.854;13.778;2023-07-31T13:26:55;4.40;;;2.30;;
18875;SDS011;9570;50.854;13.778;2023-07-31T13:29:21;3.30;;;1.70;;
18875;SDS011;9570;50.854;13.778;2023-07-31T13:31:47;3.27;;;1.90;;
18875;SDS011;9570;50.854;13.778;2023-07-31T13:34:12;2.80;;;1.70;;
18875;SDS011;9570;50.854;13.778;2023-07-31T13:36:38;2.70;;;2.10;;
18875;SDS011;9570;50.854;13.778;2023-07-31T13:39:03;2.20;;;1.80;;
18875;SDS011;9570;50.854;13.778;2023-07-31T13:41:29;3.20;;;2.10;;
18875;SDS011;9570;50.854;13.778;2023-07-31T13:43:54;4.07;;;1.80;;
18875;SDS011;9570;50.854;13.778;2023-07-31T13:46:20;2.50;;;1.60;;
18875;SDS011;9570;50.854;13.778;2023-07-31T13:48:45;4.47;;;1.73;;
18875;SDS011;9570;50.854;13.778;2023-07-31T13:51:11;3.60;;;1.93;;
18875;SDS011;9570;50.854;13.778;2023-07-31T13:53:36;2.43;;;1.73;;
18875;SDS011;9570;50.854;13.778;2023-07-31T13:56:02;4.20;;;1.87;;
18875;SDS011;9570;50.854;13.778;2023-07-31T13:58:27;4.40;;;2.00;;
18875;SDS011;9570;50.854;13.778;2023-07-31T14:00:53;2.23;;;2.00;;
18875;SDS011;9570;50.854;13.778;2023-07-31T14:03:18;3.20;;;1.93;;
18875;SDS011;9570;50.854;13.778;2023-07-31T14:05:44;3.00;;;2.27;;
18875;SDS011;9570;50.854;13.778;2023-07-31T14:08:09;2.50;;;1.73;;
18875;SDS011;9570;50.854;13.778;2023-07-31T14:10:35;3.67;;;2.10;;
18875;SDS011;9570;50.854;13.778;2023-07-31T14:13:00;2.93;;;1.90;;
18875;SDS011;9570;50.854;13.778;2023-07-31T14:15:26;2.03;;;1.77;;
18875;SDS011;9570;50.854;13.778;2023-07-31T14:17:51;2.33;;;1.83;;
18875;SDS011;9570;50.854;13.778;2023-07-31T14:20:17;2.77;;;2.13;;
18875;SDS011;9570;50.854;13.778;2023-07-31T14:22:43;2.97;;;1.90;;
18875;SDS011;9570;50.854;13.778;2023-07-31T14:25:08;3.90;;;1.97;;
18875;SDS011;9570;50.854;13.778;2023-07-31T14:27:35;3.97;;;2.23;;
18875;SDS011;9570;50.854;13.778;2023-07-31T14:30:01;2.90;;;2.20;;
18875;SDS011;9570;50.854;13.778;2023-07-31T14:32:27;5.03;;;2.00;;
18875;SDS011;9570;50.854;13.778;2023-07-31T14:34:52;3.20;;;1.90;;
18875;SDS011;9570;50.854;13.778;2023-07-31T14:37:19;2.67;;;2.17;;
18875;SDS011;9570;50.854;13.778;2023-07-31T14:39:44;3.27;;;1.87;;
18875;SDS011;9570;50.854;13.778;2023-07-31T14:42:10;3.40;;;1.93;;
18875;SDS011;9570;50.854;13.778;2023-07-31T14:44:36;4.53;;;2.23;;
18875;SDS011;9570;50.854;13.778;2023-07-31T14:47:01;3.57;;;2.07;;
18875;SDS011;9570;50.854;13.778;2023-07-31T14:49:26;3.70;;;2.23;;
18875;SDS011;9570;50.854;13.778;2023-07-31T14:51:53;3.07;;;2.17;;